Sint-Niklaas, Belgium
Current Conditions -  °F | °C
As of 11:20 PM on Monday 26 Jan 2015 (Local Time) from EBAW Reporting Station
Clear Clear  
Wind Chill: 37°   Ceiling: Unl
Heat Index: 43°   Visibility: 6mi
Dew Point: 37°   Wind: 12mph
Humidity: 81%   Direction: 320°NW
Pressure: 30.21"   Gusts: NA
Location:  51.17°N, 4.1°E
Report Text: EBAW 262220Z AUTO 32010KT CAVOK 06/03 Q1023
Loading
Personal Weather Stations






























Interactive Weather Map New forecast layout! Learn more

10-Day Weather Forecast

Advertisements
Track Severe Weather on mobile